createdAt,value
2023-01-02T00:01:33.907Z,13.97
2023-01-02T00:04:02.188Z,16.63
2023-01-02T00:06:35.077Z,18.20
2023-01-02T00:09:03.506Z,17.47
2023-01-02T00:11:34.831Z,15.73
2023-01-02T00:14:03.139Z,14.53
2023-01-02T00:16:31.418Z,15.43
2023-01-02T00:18:59.634Z,14.47
2023-01-02T00:21:28.058Z,14.13
2023-01-02T00:23:57.643Z,14.80
2023-01-02T00:26:25.828Z,14.37
2023-01-02T00:28:54.046Z,14.23
2023-01-02T00:31:22.280Z,11.57
2023-01-02T00:33:50.526Z,15.03
2023-01-02T00:36:18.798Z,14.23
2023-01-02T00:38:47.085Z,15.57
2023-01-02T00:41:16.666Z,15.57
2023-01-02T00:43:44.863Z,14.37
2023-01-02T00:46:13.196Z,12.07
2023-01-02T00:48:41.678Z,13.37
2023-01-02T00:51:10.007Z,12.20
2023-01-02T00:53:38.599Z,14.33
2023-01-02T00:56:07.805Z,15.83
2023-01-02T00:58:37.361Z,17.07
2023-01-02T01:01:06.288Z,15.87
2023-01-02T01:03:34.807Z,13.53
2023-01-02T01:06:08.752Z,13.10
2023-01-02T01:08:38.144Z,12.03
2023-01-02T01:11:08.019Z,12.83
2023-01-02T01:13:37.667Z,15.80
2023-01-02T01:16:07.350Z,14.47
2023-01-02T01:18:36.173Z,13.03
2023-01-02T01:21:08.774Z,12.40
2023-01-02T01:23:37.144Z,12.80
2023-01-02T01:26:07.722Z,13.13
2023-01-02T01:28:37.980Z,20.93
2023-01-02T01:31:09.730Z,14.80
2023-01-02T01:33:38.725Z,12.33
2023-01-02T01:36:10.247Z,14.80
2023-01-02T01:38:38.520Z,12.57
2023-01-02T01:41:07.671Z,14.73
2023-01-02T01:43:43.898Z,14.73
2023-01-02T01:46:23.073Z,14.07
2023-01-02T01:48:58.485Z,13.70
2023-01-02T01:51:28.049Z,14.80
2023-01-02T01:54:08.930Z,15.20
2023-01-02T01:56:40.621Z,12.43
2023-01-02T01:59:11.929Z,13.23
2023-01-02T02:01:41.729Z,13.97
2023-01-02T02:04:11.970Z,12.13
2023-01-02T02:06:40.726Z,13.17
2023-01-02T02:09:15.585Z,15.93
2023-01-02T02:11:44.278Z,13.77
2023-01-02T02:14:13.899Z,13.00
2023-01-02T02:16:50.977Z,11.13
2023-01-02T02:20:00.193Z,11.90
2023-01-02T02:23:07.357Z,17.17
2023-01-02T02:26:14.075Z,13.20
2023-01-02T02:29:35.343Z,15.43
2023-01-02T02:32:12.638Z,11.13
2023-01-02T02:34:49.650Z,14.90
2023-01-02T02:37:25.884Z,19.47
2023-01-02T02:40:07.539Z,11.50
2023-01-02T02:42:47.289Z,10.67
2023-01-02T02:45:30.649Z,13.00
2023-01-02T02:48:07.586Z,11.33
2023-01-02T02:50:40.853Z,13.13
2023-01-02T02:53:16.835Z,9.97
2023-01-02T02:55:49.634Z,11.90
2023-01-02T02:58:20.527Z,10.70
2023-01-02T03:00:49.108Z,10.27
2023-01-02T03:03:22.893Z,13.07
2023-01-02T03:06:10.323Z,12.80
2023-01-02T03:08:47.665Z,11.27
2023-01-02T03:11:16.811Z,11.27
2023-01-02T03:13:58.632Z,10.80
2023-01-02T03:16:33.603Z,13.43
2023-01-02T03:19:09.976Z,9.70
2023-01-02T03:21:42.924Z,11.23
2023-01-02T03:24:16.638Z,12.10
2023-01-02T03:26:50.663Z,12.23
2023-01-02T03:29:24.668Z,10.33
2023-01-02T03:31:56.989Z,12.10
2023-01-02T03:34:30.368Z,13.47
2023-01-02T03:37:05.398Z,11.97
2023-01-02T03:39:39.407Z,11.67
2023-01-02T03:42:11.753Z,10.83
2023-01-02T03:44:49.817Z,10.13
2023-01-02T03:47:28.896Z,11.23
2023-01-02T03:50:04.820Z,11.30
2023-01-02T03:52:33.347Z,11.17
2023-01-02T03:55:02.855Z,9.17
2023-01-02T03:57:41.220Z,12.70
2023-01-02T04:00:14.076Z,11.27
2023-01-02T04:02:51.728Z,10.10
2023-01-02T04:05:28.770Z,10.27
2023-01-02T04:08:02.456Z,11.47
2023-01-02T04:10:31.649Z,11.20
2023-01-02T04:13:06.332Z,11.07
2023-01-02T04:15:37.316Z,9.83
2023-01-02T04:18:10.512Z,8.93
2023-01-02T04:20:47.506Z,8.43
2023-01-02T04:23:19.219Z,9.03
2023-01-02T04:25:54.089Z,9.13
2023-01-02T04:28:28.322Z,8.30
2023-01-02T04:31:05.476Z,7.57
2023-01-02T04:33:39.191Z,7.53
2023-01-02T04:36:14.917Z,11.60
2023-01-02T04:38:44.718Z,8.20
2023-01-02T04:41:17.840Z,10.03
2023-01-02T04:43:46.054Z,8.07
2023-01-02T04:46:14.310Z,10.23
2023-01-02T04:48:42.587Z,8.63
2023-01-02T04:51:12.172Z,9.07
2023-01-02T04:53:40.455Z,12.80
2023-01-02T04:56:09.187Z,10.50
2023-01-02T04:58:37.454Z,10.73
2023-01-02T05:01:10.370Z,13.20
2023-01-02T05:03:41.269Z,8.93
2023-01-02T05:06:11.810Z,10.20
2023-01-02T05:08:40.575Z,11.47
2023-01-02T05:11:10.736Z,12.07
2023-01-02T05:13:39.071Z,9.17
2023-01-02T05:16:09.094Z,10.47
2023-01-02T05:18:37.807Z,12.60
2023-01-02T05:21:28.966Z,11.33
2023-01-02T05:24:00.006Z,13.57
2023-01-02T05:26:30.736Z,12.70
2023-01-02T05:28:58.927Z,13.50
2023-01-02T05:31:28.077Z,13.93
2023-01-02T05:33:57.846Z,15.67
2023-01-02T05:36:27.925Z,11.80
2023-01-02T05:38:57.805Z,12.10
2023-01-02T05:41:26.053Z,14.93
2023-01-02T05:43:56.262Z,12.93
2023-01-02T05:46:24.618Z,10.57
2023-01-02T05:48:52.915Z,12.10
2023-01-02T05:51:21.174Z,11.93
2023-01-02T05:53:50.872Z,10.23
2023-01-02T05:56:21.977Z,11.77
2023-01-02T05:58:51.586Z,11.13
2023-01-02T06:01:22.658Z,11.17
2023-01-02T06:03:53.808Z,14.53
2023-01-02T06:06:24.600Z,13.73
2023-01-02T06:08:52.956Z,14.23
2023-01-02T06:11:22.766Z,15.27
2023-01-02T06:13:51.009Z,16.57
2023-01-02T06:16:19.303Z,15.93
2023-01-02T06:18:48.133Z,18.10
2023-01-02T06:21:19.730Z,18.17
2023-01-02T06:23:49.270Z,14.37
2023-01-02T06:26:20.246Z,15.37
2023-01-02T06:28:53.030Z,15.37
2023-01-02T06:31:24.435Z,13.90
2023-01-02T06:33:55.682Z,13.40
2023-01-02T06:36:24.064Z,12.47
2023-01-02T06:38:52.457Z,16.37
2023-01-02T06:41:20.848Z,16.87
2023-01-02T06:43:52.125Z,18.30
2023-01-02T06:46:23.468Z,15.97
2023-01-02T06:48:51.874Z,15.70
2023-01-02T06:51:22.022Z,13.80
2023-01-02T06:53:50.902Z,13.10
2023-01-02T06:56:21.628Z,13.10
2023-01-02T06:58:51.384Z,14.37
2023-01-02T07:01:22.092Z,11.83
2023-01-02T07:03:50.623Z,12.80
2023-01-02T07:06:21.305Z,12.23
2023-01-02T07:08:50.366Z,13.83
2023-01-02T07:11:21.429Z,9.73
2023-01-02T07:13:53.977Z,10.10
2023-01-02T07:16:24.583Z,8.77
2023-01-02T07:18:53.916Z,10.40
2023-01-02T07:21:22.854Z,10.30
2023-01-02T07:23:51.228Z,13.20
2023-01-02T07:26:19.868Z,10.00
2023-01-02T07:28:51.251Z,10.73
2023-01-02T07:31:22.599Z,9.37
2023-01-02T07:33:51.041Z,12.30
2023-01-02T07:36:22.219Z,10.70
2023-01-02T07:38:52.503Z,13.23
2023-01-02T07:41:23.169Z,11.03
2023-01-02T07:43:52.311Z,15.47
2023-01-02T07:46:22.212Z,13.50
2023-01-02T07:48:51.282Z,12.77
2023-01-02T07:51:24.742Z,13.63
2023-01-02T07:53:55.172Z,15.77
2023-01-02T07:56:23.468Z,15.33
2023-01-02T07:58:52.816Z,12.30
2023-01-02T08:01:22.731Z,14.83
2023-01-02T08:03:51.152Z,15.53
2023-01-02T08:06:20.514Z,15.43
2023-01-02T08:08:49.208Z,15.47
2023-01-02T08:11:20.143Z,14.50
2023-01-02T08:13:48.658Z,14.90
2023-01-02T08:16:19.200Z,14.93
2023-01-02T08:18:51.383Z,14.57
2023-01-02T08:21:20.084Z,14.77
2023-01-02T08:23:48.494Z,17.27
2023-01-02T08:26:16.933Z,18.53
2023-01-02T08:28:45.690Z,21.97
2023-01-02T08:31:17.241Z,21.57
2023-01-02T08:33:45.871Z,19.83
2023-01-02T08:36:15.662Z,21.43
2023-01-02T08:38:44.542Z,14.73
2023-01-02T08:41:12.951Z,16.70
2023-01-02T08:43:41.286Z,19.60
2023-01-02T08:46:11.154Z,17.23
2023-01-02T08:48:39.446Z,19.93
2023-01-02T08:51:07.922Z,19.47
2023-01-02T08:53:37.553Z,19.90
2023-01-02T08:56:23.086Z,22.63
2023-01-02T08:58:53.684Z,18.73
2023-01-02T09:01:23.147Z,16.67
2023-01-02T09:03:52.283Z,15.90
2023-01-02T09:06:22.334Z,13.97
2023-01-02T09:08:53.296Z,15.33
2023-01-02T09:11:24.854Z,13.67
2023-01-02T09:13:53.266Z,15.27
2023-01-02T09:16:22.300Z,19.50
2023-01-02T09:18:51.144Z,16.73
2023-01-02T09:21:19.678Z,18.27
2023-01-02T09:23:48.481Z,27.40
2023-01-02T09:26:18.477Z,20.53
2023-01-02T09:28:46.837Z,25.97
2023-01-02T09:31:17.320Z,38.13
2023-01-02T09:33:47.176Z,25.73
2023-01-02T09:36:18.325Z,23.67
2023-01-02T09:38:52.702Z,23.47
2023-01-02T09:41:35.725Z,40.00
2023-01-02T09:44:11.329Z,46.13
2023-01-02T09:46:47.363Z,32.50
2023-01-02T09:49:19.358Z,24.57
2023-01-02T09:51:48.120Z,21.73
2023-01-02T09:54:24.644Z,21.77
2023-01-02T09:57:11.444Z,21.90
2023-01-02T09:59:50.503Z,20.40
2023-01-02T10:02:34.766Z,17.23
2023-01-02T10:05:30.078Z,23.63
2023-01-02T10:08:10.591Z,15.53
2023-01-02T10:10:43.185Z,19.03
2023-01-02T10:13:22.359Z,18.17
2023-01-02T10:15:54.685Z,14.77
2023-01-02T10:18:27.926Z,14.73
2023-01-02T10:21:01.265Z,14.17
2023-01-02T10:23:37.219Z,12.87
2023-01-02T10:26:14.033Z,13.07
2023-01-02T10:28:52.016Z,12.77
2023-01-02T10:31:26.530Z,13.13
2023-01-02T10:33:59.939Z,11.67
2023-01-02T10:36:31.480Z,12.17
2023-01-02T10:39:02.012Z,12.63
2023-01-02T10:41:32.607Z,17.07
2023-01-02T10:44:06.798Z,16.17
2023-01-02T10:46:37.862Z,14.63
2023-01-02T10:49:09.166Z,14.53
2023-01-02T10:51:39.844Z,14.07
2023-01-02T10:54:10.185Z,14.90
2023-01-02T10:56:40.960Z,14.27
2023-01-02T10:59:22.979Z,14.77
2023-01-02T11:01:54.395Z,15.17
2023-01-02T11:04:25.715Z,14.87
2023-01-02T11:06:58.196Z,17.50
2023-01-02T11:09:29.496Z,20.63
2023-01-02T11:12:01.194Z,15.73
2023-01-02T11:14:34.629Z,16.40
2023-01-02T11:17:08.496Z,18.40
2023-01-02T11:19:42.554Z,16.67
2023-01-02T11:22:11.687Z,18.40
2023-01-02T11:24:59.895Z,16.13
2023-01-02T11:27:32.829Z,15.20
2023-01-02T11:30:03.587Z,15.63
2023-01-02T11:32:40.737Z,15.17
2023-01-02T11:35:38.301Z,18.50
2023-01-02T11:38:15.001Z,18.53
2023-01-02T11:40:58.998Z,15.87
2023-01-02T11:43:48.944Z,15.53
2023-01-02T11:46:29.573Z,21.77
2023-01-02T11:49:04.380Z,16.50
2023-01-02T11:51:37.001Z,12.80
2023-01-02T11:54:14.186Z,15.50
2023-01-02T11:56:45.113Z,14.50
2023-01-02T11:59:20.987Z,14.27
2023-01-02T12:02:00.802Z,20.33
2023-01-02T12:04:29.620Z,14.97
2023-01-02T12:07:18.715Z,18.73
2023-01-02T12:09:56.652Z,13.73
2023-01-02T12:12:49.694Z,13.20
2023-01-02T12:16:07.208Z,12.77
2023-01-02T12:19:04.526Z,15.40
2023-01-02T12:21:40.962Z,13.17
2023-01-02T12:24:50.465Z,12.90
2023-01-02T12:27:26.767Z,13.90
2023-01-02T12:30:08.904Z,13.87
2023-01-02T12:33:19.015Z,15.37
2023-01-02T12:36:15.200Z,18.27
2023-01-02T12:39:21.687Z,18.53
2023-01-02T12:42:02.515Z,17.80
2023-01-02T12:44:49.380Z,18.53
2023-01-02T12:47:34.613Z,16.17
2023-01-02T12:50:28.988Z,17.50
2023-01-02T12:53:17.517Z,18.67
2023-01-02T12:56:01.751Z,18.00
2023-01-02T12:58:50.572Z,15.87
2023-01-02T13:01:27.397Z,14.73
2023-01-02T13:04:03.967Z,15.20
2023-01-02T13:06:47.216Z,15.33
2023-01-02T13:09:26.815Z,15.97
2023-01-02T13:12:05.023Z,14.77
2023-01-02T13:14:40.465Z,16.03
2023-01-02T13:17:35.288Z,13.80
2023-01-02T13:20:12.064Z,16.97
2023-01-02T13:22:53.353Z,14.43
2023-01-02T13:25:26.077Z,15.10
2023-01-02T13:27:56.662Z,14.77
2023-01-02T13:30:46.723Z,15.77
2023-01-02T13:33:31.009Z,15.20
2023-01-02T13:36:03.468Z,14.47
2023-01-02T13:38:36.952Z,14.83
2023-01-02T13:41:06.777Z,14.87
2023-01-02T13:43:35.887Z,13.60
2023-01-02T13:46:04.504Z,14.00
2023-01-02T13:48:36.634Z,15.37
2023-01-02T13:51:07.442Z,13.73
2023-01-02T13:53:40.093Z,15.10
2023-01-02T13:56:13.386Z,15.73
2023-01-02T13:58:50.841Z,14.20
2023-01-02T14:02:12.678Z,16.23
2023-01-02T14:04:42.530Z,15.10
2023-01-02T14:07:49.435Z,14.77
2023-01-02T14:10:36.268Z,14.60
2023-01-02T14:13:35.825Z,14.90
2023-01-02T14:16:35.321Z,12.83
2023-01-02T14:19:16.645Z,13.70
2023-01-02T14:21:48.911Z,16.03
2023-01-02T14:24:32.446Z,15.00
2023-01-02T14:27:04.218Z,14.07
2023-01-02T14:29:48.980Z,15.13
2023-01-02T14:32:25.819Z,14.57
2023-01-02T14:34:56.969Z,12.53
2023-01-02T14:37:37.802Z,15.60
2023-01-02T14:40:35.153Z,14.63
2023-01-02T14:43:26.202Z,14.73
2023-01-02T14:46:02.060Z,16.83
2023-01-02T14:48:37.476Z,16.50
2023-01-02T14:51:10.914Z,13.60
2023-01-02T14:53:46.909Z,15.53
2023-01-02T14:56:19.684Z,14.13
2023-01-02T14:58:50.331Z,15.60
2023-01-02T15:01:42.610Z,18.67
2023-01-02T15:04:21.740Z,17.97
2023-01-02T15:06:57.629Z,18.73
2023-01-02T15:09:32.515Z,17.47
2023-01-02T15:12:21.071Z,19.03
2023-01-02T15:14:49.666Z,19.30
2023-01-02T15:17:21.862Z,18.73
2023-01-02T15:19:50.813Z,17.27
2023-01-02T15:22:23.248Z,18.63
2023-01-02T15:24:54.150Z,16.60
2023-01-02T15:27:25.672Z,19.07
2023-01-02T15:29:56.955Z,16.83
2023-01-02T15:32:28.861Z,17.77
2023-01-02T15:35:11.014Z,15.67
2023-01-02T15:37:44.788Z,16.63
2023-01-02T15:40:17.422Z,17.07
2023-01-02T15:43:04.427Z,17.90
2023-01-02T15:45:34.084Z,16.70
2023-01-02T15:48:05.546Z,20.13
2023-01-02T15:50:34.073Z,22.67
2023-01-02T15:53:05.008Z,19.20
2023-01-02T15:55:38.226Z,20.73
2023-01-02T15:58:24.817Z,18.50
2023-01-02T16:01:18.863Z,22.93
2023-01-02T16:04:02.741Z,23.90
2023-01-02T16:06:35.436Z,23.80
2023-01-02T16:09:06.708Z,26.27
2023-01-02T16:11:45.372Z,33.47
2023-01-02T16:14:22.325Z,29.67
2023-01-02T16:16:55.444Z,29.93
2023-01-02T16:19:33.356Z,26.23
2023-01-02T16:22:16.480Z,27.17
2023-01-02T16:24:48.777Z,30.03
2023-01-02T16:27:27.237Z,36.27
2023-01-02T16:29:56.352Z,37.10
2023-01-02T16:32:30.856Z,27.37
2023-01-02T16:35:22.282Z,32.07
2023-01-02T16:37:57.086Z,27.03
2023-01-02T16:41:00.787Z,25.27
2023-01-02T16:43:35.394Z,25.50
2023-01-02T16:46:12.533Z,23.60
2023-01-02T16:48:42.854Z,22.70
2023-01-02T16:51:15.819Z,21.80
2023-01-02T16:53:45.856Z,20.80
2023-01-02T16:56:16.080Z,21.60
2023-01-02T16:58:44.489Z,18.43
2023-01-02T17:01:15.539Z,15.67
2023-01-02T17:03:45.314Z,13.03
2023-01-02T17:06:19.141Z,13.40
2023-01-02T17:08:48.090Z,16.27
2023-01-02T17:11:18.928Z,17.37
2023-01-02T17:13:47.363Z,17.93
2023-01-02T17:16:16.255Z,14.30
2023-01-02T17:18:44.775Z,17.30
2023-01-02T17:21:15.229Z,16.67
2023-01-02T17:23:43.598Z,17.10
2023-01-02T17:26:11.918Z,17.63
2023-01-02T17:28:40.299Z,15.40
2023-01-02T17:31:09.261Z,17.80
2023-01-02T17:33:37.709Z,14.63
2023-01-02T17:36:07.920Z,14.23
2023-01-02T17:38:37.654Z,14.50
2023-01-02T17:41:06.350Z,15.33
2023-01-02T17:43:34.972Z,12.80
2023-01-02T17:46:30.499Z,11.87
2023-01-02T17:48:55.541Z,12.50
2023-01-02T17:51:23.890Z,13.80
2023-01-02T17:53:54.745Z,15.80
2023-01-02T17:56:24.452Z,13.77
2023-01-02T17:58:52.838Z,16.20
2023-01-02T18:01:22.482Z,14.80
2023-01-02T18:03:51.009Z,15.23
2023-01-02T18:06:19.928Z,12.37
2023-01-02T18:08:48.285Z,13.27
2023-01-02T18:11:18.835Z,16.20
2023-01-02T18:13:49.709Z,14.43
2023-01-02T18:16:21.230Z,12.37
2023-01-02T18:18:51.483Z,11.70
2023-01-02T18:21:22.131Z,24.47
2023-01-02T18:23:54.762Z,24.50
2023-01-02T18:26:26.271Z,20.70
2023-01-02T18:29:02.952Z,24.60
2023-01-02T18:31:41.671Z,25.13
2023-01-02T18:34:46.528Z,21.43
2023-01-02T18:37:21.168Z,25.13
2023-01-02T18:39:50.752Z,22.23
2023-01-02T18:42:23.404Z,25.07
2023-01-02T18:44:53.894Z,22.80
2023-01-02T18:47:30.402Z,22.23
2023-01-02T18:50:23.664Z,24.40
2023-01-02T18:52:53.436Z,21.77
2023-01-02T18:55:26.668Z,24.20
2023-01-02T18:58:01.479Z,23.77
2023-01-02T19:00:33.275Z,37.50
2023-01-02T19:03:04.732Z,34.27
2023-01-02T19:05:35.837Z,32.57
2023-01-02T19:08:21.206Z,30.90
2023-01-02T19:10:53.319Z,32.23
2023-01-02T19:13:24.667Z,29.93
2023-01-02T19:15:57.727Z,24.50
2023-01-02T19:18:36.286Z,25.97
2023-01-02T19:21:18.941Z,24.93
2023-01-02T19:23:54.050Z,22.53
2023-01-02T19:26:32.540Z,21.93
2023-01-02T19:29:20.188Z,22.00
2023-01-02T19:31:53.111Z,16.70
2023-01-02T19:34:37.448Z,27.77
2023-01-02T19:37:35.657Z,21.13
2023-01-02T19:40:13.133Z,18.73
2023-01-02T19:42:45.450Z,18.30
2023-01-02T19:45:20.590Z,25.77
2023-01-02T19:47:50.162Z,24.10
2023-01-02T19:50:22.385Z,22.43
2023-01-02T19:52:50.939Z,50.03
2023-01-02T19:55:20.330Z,53.00
2023-01-02T19:57:49.132Z,36.07
2023-01-02T20:00:20.408Z,34.23
2023-01-02T20:02:51.385Z,32.17
2023-01-02T20:05:22.606Z,20.03
2023-01-02T20:07:53.547Z,28.60
2023-01-02T20:10:22.153Z,44.50
2023-01-02T20:12:50.612Z,34.30
2023-01-02T20:15:24.043Z,36.73
2023-01-02T20:17:53.258Z,37.63
2023-01-02T20:20:24.921Z,28.10
2023-01-02T20:22:54.981Z,29.97
2023-01-02T20:25:26.501Z,29.87
2023-01-02T20:27:57.769Z,30.23
2023-01-02T20:30:27.829Z,26.83
2023-01-02T20:32:56.798Z,26.83
2023-01-02T20:35:25.147Z,30.90
2023-01-02T20:37:53.455Z,27.87
2023-01-02T20:40:23.103Z,33.40
2023-01-02T20:42:51.379Z,24.53
2023-01-02T20:45:19.825Z,30.80
2023-01-02T20:47:49.524Z,28.83
2023-01-02T20:50:20.806Z,32.43
2023-01-02T20:52:53.482Z,26.83
2023-01-02T20:55:25.006Z,26.97
2023-01-02T20:57:53.587Z,28.87
2023-01-02T21:00:22.468Z,27.53
2023-01-02T21:02:55.697Z,25.83
2023-01-02T21:05:26.305Z,24.63
2023-01-02T21:07:54.581Z,26.80
2023-01-02T21:10:22.880Z,25.03
2023-01-02T21:13:10.673Z,28.50
2023-01-02T21:15:45.195Z,22.90
2023-01-02T21:18:19.588Z,27.13
2023-01-02T21:20:50.359Z,25.73
2023-01-02T21:23:20.064Z,22.20
2023-01-02T21:25:49.212Z,21.17
2023-01-02T21:28:19.158Z,21.90
2023-01-02T21:30:48.115Z,25.30
2023-01-02T21:33:21.640Z,34.77
2023-01-02T21:35:52.040Z,36.13
2023-01-02T21:38:22.550Z,40.57
2023-01-02T21:40:51.834Z,29.57
2023-01-02T21:43:20.723Z,33.03
2023-01-02T21:45:49.152Z,35.37
2023-01-02T21:48:18.904Z,35.37
2023-01-02T21:50:47.307Z,34.30
2023-01-02T21:53:16.883Z,29.13
2023-01-02T21:55:45.423Z,32.57
2023-01-02T21:58:14.560Z,27.23
2023-01-02T22:00:43.980Z,28.97
2023-01-02T22:03:12.728Z,28.07
2023-01-02T22:05:42.829Z,30.20
2023-01-02T22:08:11.215Z,31.40
2023-01-02T22:10:39.599Z,31.27
2023-01-02T22:13:08.015Z,29.67
2023-01-02T22:15:36.416Z,27.33
2023-01-02T22:18:05.020Z,26.43
2023-01-02T22:20:33.394Z,29.80
2023-01-02T22:23:03.117Z,29.47
2023-01-02T22:25:32.083Z,24.77
2023-01-02T22:28:00.926Z,24.27
2023-01-02T22:30:34.619Z,23.67
2023-01-02T22:33:04.183Z,24.83
2023-01-02T22:35:32.597Z,26.17
2023-01-02T22:38:02.424Z,26.80
2023-01-02T22:40:30.822Z,24.23
2023-01-02T22:43:02.941Z,24.70
2023-01-02T22:45:36.909Z,23.30
2023-01-02T22:48:16.337Z,22.80
2023-01-02T22:50:47.256Z,23.83
2023-01-02T22:53:22.576Z,25.70
2023-01-02T22:55:51.807Z,24.87
2023-01-02T22:58:20.661Z,42.57
2023-01-02T23:00:55.241Z,28.93
2023-01-02T23:03:23.740Z,23.73
2023-01-02T23:05:52.091Z,22.73
2023-01-02T23:08:21.804Z,24.87
2023-01-02T23:10:50.177Z,26.57
2023-01-02T23:13:18.463Z,26.20
2023-01-02T23:16:00.777Z,22.60
2023-01-02T23:18:50.254Z,24.13
2023-01-02T23:21:23.225Z,21.63
2023-01-02T23:23:53.617Z,20.10
2023-01-02T23:26:24.218Z,20.63
2023-01-02T23:29:09.959Z,21.47
2023-01-02T23:31:40.599Z,22.47
2023-01-02T23:34:09.920Z,22.97
2023-01-02T23:36:39.093Z,24.67
2023-01-02T23:39:12.696Z,24.97
2023-01-02T23:41:42.182Z,26.70
2023-01-02T23:44:12.387Z,24.50
2023-01-02T23:46:41.933Z,25.27
2023-01-02T23:49:11.535Z,22.67
2023-01-02T23:51:40.820Z,21.93
2023-01-02T23:54:13.071Z,22.60
2023-01-02T23:56:44.346Z,23.37
2023-01-02T23:59:16.304Z,24.37
